Tim Musah

Olheiro - San Jose Earthquakes
23 Abr 2028
Domingo
Processo

Personalidade

Adaptabilidade (11) Ambição (15) Controvérsia (20) Lealdade (7) Pressão (5) Profissionalismo (10) Espírito Esportivo (5) Temperamento (4)

Perfil

Estilo de Treinamento Democrático
Licença Continental B
Determinação 12
Gestão de Pessoas 12
Motivação 12
Disciplina 9
Satisfação no Trabalho
100%
Fadiga
0%
Função Olheiro
Salário 77.4K p/s
Contrato 14.03.2030

Desempenho

Comportamento Bom
Eficácia do Treinamento
40%
Desenvolvimento do Jogador
40%
Prevenção de Lesões
60%
Implementação Tática
60%

Eventos Recentes

Participou de uma reunião de recrutamento agora
Participou de uma reunião de recrutamento 7d atrás
Recomendou um alvo de transferência 7d atrás
Participou de uma reunião de recrutamento 14d atrás
Recomendou um alvo de transferência 14d atrás
Participou de uma reunião de recrutamento 21d atrás
Recomendou um alvo de transferência 21d atrás
Recomendou um alvo de transferência 28d atrás

Monitorando agora

61
Jogador Clube Status Habilidade Confiança Observado Última observação Último voto
Slade Starnes FC Dallas Negociando 94 / 106 62% 1 17.04.2028 -
Daniel Steres FC Dallas Ativo 89 / 99 62% 1 15.02.2028 Aprovar
Edwin Asamoah Berekum Chelsea Ativo 85 / 93 40% 1 08.03.2027 -
Zane Albarus Shrewsbury Town Ativo 104 / 94 40% 1 08.03.2027 -
Rocco Vata Watford Ativo 110 / 135 40% 1 13.02.2027 -
Sam Bell Bristol City Ativo 106 / 123 40% 1 13.02.2027 -
Abu Kamara Portsmouth Ativo 111 / 120 40% 1 11.02.2027 -
Aune Heggebø West Bromwich Albion Ativo 136 / 117 40% 1 11.02.2027 -
Ilyas Ansah Hull City Ativo 142 / 128 40% 1 11.02.2027 -
Lorent Tolaj Plymouth Argyle Ativo 119 / 109 40% 1 09.02.2027 -
Harvey White Stevenage Ativo 113 / 125 40% 1 02.02.2027 -
Assane Diao Como Ativo 147 / 144 40% 1 30.01.2027 -
Giorgi Kvernadze Frosinone Ativo 139 / 113 40% 1 28.01.2027 -
João Félix Dinamo Moscow Ativo 153 / 160 40% 4 26.01.2027 -
Etiosa Ighodaro Kaizer Chiefs Ativo 97 / 106 40% 1 26.01.2027 -
Stephen Amankona Aduana Stars Ativo 105 / 86 40% 2 24.01.2027 -
Solly Khunyedi Bloemfontein Celtic Ativo 103 / 87 40% 2 24.01.2027 -
Erick Dolly Black Aces Ativo 104 / 127 40% 4 22.01.2027 -
Armstrong Oko-Flex Levski Ativo 116 / 122 40% 5 19.01.2027 -
Evidence Makgopa Orlando Pirates Ativo 118 / 110 40% 3 19.01.2027 -
Peter Valjent FK Senica Ativo 120 / 126 40% 6 18.01.2027 -
Thalente Mbatha Orlando Pirates Ativo 119 / 105 40% 2 12.01.2027 -
Ibrahim Ayoola Police Union Ativo 73 / 92 40% 2 06.01.2027 -
Jere Vrcić Birkirkara Ativo 97 / 83 40% 2 05.01.2027 -
Jacques Siwe Rubin Ativo 103 / 128 40% 2 04.01.2027 -
Matej Trusa DAC Dunajska Streda Ativo 120 / 115 40% 2 04.01.2027 -
Martin Sekulić Ural Ativo 117 / 112 40% 2 29.12.2026 -
Mathys Tel Tottenham Ativo 138 / 152 40% 5 27.12.2026 -
Samuel Kalu Botev Plovdiv Ativo 130 / 130 40% 1 23.12.2026 -
Federico Martínez MFK Ruzomberok Ativo 113 / 113 40% 1 20.12.2026 -
Wessam Abou Ali Columbus Crew Ativo 121 / 135 40% 2 17.12.2026 -
Brayan Gil Baltika Ativo 115 / 112 40% 1 12.12.2026 -
Jay Stansfield Birmingham Ativo 127 / 124 40% 2 09.12.2026 -
Egas Cacintura Akhmat Grozny Ativo 122 / 130 40% 2 08.12.2026 -
Germán Berterame Inter Miami CF Ativo 132 / 131 40% 2 02.12.2026 -
Zach Ryan Ismaily Ativo 91 / 88 40% 2 01.12.2026 -
Martín Ojeda Orlando City Ativo 134 / 133 40% 4 27.11.2026 -
Igor Jesus Nottingham Forest Ativo 157 / 146 40% 1 27.11.2026 -
Paschal Durugbor El Dakhleya Ativo 91 / 94 40% 3 21.11.2026 -
Yanela Mbuthuma Orlando Pirates Ativo 103 / 111 40% 2 16.11.2026 -
Morgan Guilavogui Real Salt Lake Ativo 129 / 125 40% 2 14.11.2026 -
Sam Nombe Milton Keynes Dons Ativo 115 / 99 40% 1 14.11.2026 -
Bénie Traoré New York City Ativo 115 / 128 40% 2 09.11.2026 -
Cheikh Sabaly Vancouver Whitecaps Ativo 113 / 118 40% 1 09.11.2026 -
Dejan Joveljić Seattle Sounders Ativo 135 / 131 40% 2 04.11.2026 -
Will Swan Bradford City Ativo 106 / 107 40% 1 03.11.2026 -
Themba Williams Ajax Cape Town Ativo 102 / 113 40% 1 17.10.2026 -
Daniel Kyerewaa Reading Ativo 127 / 112 40% 1 17.10.2026 -
Callum Robinson Poltava Ativo 129 / 108 40% 1 15.10.2026 -
Maclyn Biokpo Jenewari Rivers United Ativo 95 / 110 40% 2 13.10.2026 -
Talles Magno New York City Ativo 125 / 137 40% 1 13.10.2026 -
Jesus Ferreira Seattle Sounders Ativo 121 / 134 40% 2 12.10.2026 -
Haashim Domingo Maritzburg United Ativo 94 / 96 40% 1 10.10.2026 -
Teboho Mokoena Mamelodi Sundowns Ativo 130 / 128 40% 1 08.10.2026 -
Yves Bissouma Tottenham Ativo 127 / 150 40% 1 06.10.2026 -
Josh Sargent Toronto FC Ativo 129 / 123 40% 1 06.10.2026 -
Sunday Megwo Abia Warriors Ativo 114 / 107 40% 2 25.09.2026 -
Chukwuemeka Obioma Abia Warriors Ativo 81 / 92 40% 1 19.09.2026 -
Kévin Denkey FC Cincinnati Ativo 122 / 135 40% 1 18.09.2026 -
Duncan McGuire Houston Dynamo Ativo 127 / 120 40% 1 09.09.2026 -
Jordan Beyer Burnley Ativo 146 / 132 40% 1 01.08.2026 -